Time;durP1;ratioP1;P1;durP2;ratioP2;P2;SDS_P1;SDS_P2;PMS_P1;PMS_P2;Temp;Humidity;BMP_temperature;BMP_pressure;BME280_temperature;BME280_humidity;BME280_pressure;Samples;Min_cycle;Max_cycle;Signal;HPM_P1;HPM_P2
2021/07/04 00:00:21;;;;;;;4.70;3.57;;;16.30;99.90;;;;;;5026831;28;20311;-61
2021/07/04 00:02:52;;;;;;;4.00;3.57;;;16.30;99.90;;;;;;5041899;28;20286;-62
2021/07/04 00:05:23;;;;;;;3.77;3.47;;;16.20;99.90;;;;;;5027180;28;20713;-60
2021/07/04 00:07:53;;;;;;;5.90;3.33;;;16.20;99.90;;;;;;5027118;28;20485;-61
2021/07/04 00:10:25;;;;;;;3.57;3.27;;;16.20;99.90;;;;;;5026838;28;20252;-61
2021/07/04 00:12:59;;;;;;;2.90;2.70;;;16.10;99.90;;;;;;5026820;28;20248;-61
2021/07/04 00:15:34;;;;;;;3.67;2.73;;;16.10;99.90;;;;;;5032448;28;20239;-61
2021/07/04 00:18:04;;;;;;;2.67;2.47;;;16.10;99.90;;;;;;5047388;28;20239;-61
2021/07/04 00:20:33;;;;;;;2.20;2.10;;;16.10;99.90;;;;;;5035457;28;20731;-62
2021/07/04 00:23:03;;;;;;;2.47;2.27;;;16.00;99.90;;;;;;5027349;28;20236;-61
2021/07/04 00:25:33;;;;;;;3.20;2.20;;;16.00;99.90;;;;;;5028590;28;20601;-60
2021/07/04 00:28:05;;;;;;;2.50;2.03;;;16.00;99.90;;;;;;5028507;28;20243;-60
2021/07/04 00:30:36;;;;;;;2.70;2.40;;;16.00;99.90;;;;;;5027785;28;20291;-61
2021/07/04 00:33:06;;;;;;;2.60;2.40;;;16.00;99.90;;;;;;5027416;28;20240;-61
2021/07/04 00:35:37;;;;;;;2.30;2.10;;;16.00;99.90;;;;;;5027817;28;20758;-62
2021/07/04 00:38:09;;;;;;;2.77;2.10;;;15.90;99.90;;;;;;5028563;28;20290;-61
2021/07/04 00:40:40;;;;;;;4.13;2.20;;;16.00;99.90;;;;;;5033643;28;20231;-61
2021/07/04 00:43:12;;;;;;;2.00;1.80;;;15.90;99.90;;;;;;5062812;28;20461;-61
2021/07/04 00:45:42;;;;;;;3.43;2.30;;;15.90;99.90;;;;;;5056732;28;20241;-60
2021/07/04 00:48:13;;;;;;;2.90;2.10;;;15.90;99.90;;;;;;5043416;28;20236;-61
2021/07/04 00:50:46;;;;;;;2.40;2.20;;;15.90;99.90;;;;;;5043174;28;20315;-60
2021/07/04 00:53:27;;;;;;;3.89;2.31;;;15.90;99.90;;;;;;4892427;28;10001540;-62
2021/07/04 00:55:56;;;;;;;2.70;2.50;;;15.80;99.90;;;;;;1380389;28;10002078;-62
2021/07/04 00:58:30;;;;;;;2.70;2.50;;;15.80;99.90;;;;;;5035094;28;20467;-60
2021/07/04 01:01:02;;;;;;;4.50;2.60;;;15.80;99.90;;;;;;5038861;28;20229;-61
2021/07/04 01:03:32;;;;;;;2.67;2.23;;;15.80;99.90;;;;;;5027330;28;20305;-62
2021/07/04 01:06:01;;;;;;;2.30;2.10;;;15.80;99.90;;;;;;5032490;28;20259;-62
2021/07/04 01:08:31;;;;;;;2.97;2.53;;;15.70;99.90;;;;;;5027540;28;20233;-62
2021/07/04 01:11:04;;;;;;;2.77;2.20;;;15.70;99.90;;;;;;5042111;28;20688;-62
2021/07/04 01:13:38;;;;;;;2.27;2.07;;;15.70;99.90;;;;;;5042440;28;20514;-60
2021/07/04 01:16:13;;;;;;;2.60;2.40;;;15.70;99.90;;;;;;5042633;28;20234;-61
2021/07/04 01:18:44;;;;;;;2.40;2.20;;;15.70;99.90;;;;;;5042460;28;20233;-60
2021/07/04 01:21:23;;;;;;;4.20;2.27;;;15.60;99.90;;;;;;5041943;28;20259;-60
2021/07/04 01:23:54;;;;;;;2.83;2.40;;;15.60;99.90;;;;;;5042311;28;20627;-61
2021/07/04 01:26:24;;;;;;;2.97;2.53;;;15.60;99.90;;;;;;5027446;28;20284;-61
2021/07/04 01:28:53;;;;;;;2.80;2.60;;;15.60;99.90;;;;;;5027780;28;20267;-62
2021/07/04 01:31:25;;;;;;;2.27;2.10;;;15.50;99.90;;;;;;5053772;28;20232;-61
2021/07/04 01:34:06;;;;;;;2.00;1.90;;;15.50;99.90;;;;;;5053781;28;20236;-60
2021/07/04 01:36:39;;;;;;;1.70;1.60;;;15.50;99.90;;;;;;5042182;28;20690;-60
2021/07/04 01:39:12;;;;;;;1.60;1.50;;;15.40;99.90;;;;;;5042804;28;20232;-61
2021/07/04 01:41:49;;;;;;;2.40;1.30;;;15.40;99.90;;;;;;5041737;28;20232;-60
2021/07/04 01:44:25;;;;;;;1.47;1.37;;;15.30;99.90;;;;;;5042665;28;20601;-61
2021/07/04 01:46:54;;;;;;;2.90;1.40;;;15.30;99.90;;;;;;5042669;28;20635;-61
2021/07/04 01:49:29;;;;;;;1.50;1.40;;;15.30;99.90;;;;;;5042478;28;20239;-62
2021/07/04 01:51:58;;;;;;;2.03;1.60;;;15.30;99.90;;;;;;5058771;28;20626;-60
2021/07/04 01:54:36;;;;;;;2.00;1.63;;;15.30;99.90;;;;;;5061902;28;20288;-62
2021/07/04 01:57:12;;;;;;;3.23;2.00;;;15.30;99.90;;;;;;5047319;28;20243;-62
2021/07/04 02:00:14;;;;;;;4.13;1.90;;;15.20;99.90;;;;;;5030875;28;20235;-61
2021/07/04 02:03:10;;;;;;;2.13;1.93;;;15.20;99.90;;;;;;5028359;28;20807;-61
2021/07/04 02:05:45;;;;;;;2.13;1.50;;;15.20;99.90;;;;;;5046302;28;20279;-60
2021/07/04 02:08:21;;;;;;;4.73;1.87;;;15.20;99.90;;;;;;5046260;28;20243;-62
2021/07/04 02:10:54;;;;;;;6.50;1.80;;;15.20;99.90;;;;;;5045695;28;20315;-62
2021/07/04 02:13:23;;;;;;;3.70;1.80;;;15.20;99.90;;;;;;5045376;28;20232;-60
2021/07/04 02:15:53;;;;;;;3.07;1.67;;;15.10;99.90;;;;;;5046363;28;20239;-60
2021/07/04 02:18:51;;;;;;;2.23;1.50;;;15.10;99.90;;;;;;5021930;28;20244;-60
2021/07/04 02:21:30;;;;;;;1.53;1.43;;;15.10;99.90;;;;;;5023282;28;20565;-61
2021/07/04 02:24:19;;;;;;;1.77;1.40;;;15.00;99.90;;;;;;5030302;28;20233;-60
2021/07/04 02:27:17;;;;;;;2.13;1.80;;;15.00;99.90;;;;;;5025312;28;20688;-61
2021/07/04 02:29:54;;;;;;;1.90;1.70;;;15.00;99.90;;;;;;5030145;28;20242;-61
2021/07/04 02:32:23;;;;;;;1.93;1.70;;;15.00;99.90;;;;;;5030143;28;20236;-61
2021/07/04 02:34:55;;;;;;;1.93;1.73;;;15.00;99.90;;;;;;5045884;28;20252;-61
2021/07/04 02:37:23;;;;;;;2.17;1.70;;;15.00;99.90;;;;;;5045208;28;20383;-60
2021/07/04 02:39:59;;;;;;;1.80;1.53;;;15.00;99.90;;;;;;5030295;28;20240;-60
2021/07/04 02:42:29;;;;;;;1.97;1.87;;;15.00;99.90;;;;;;5021371;28;20711;-61
2021/07/04 02:44:58;;;;;;;3.13;2.00;;;15.00;99.90;;;;;;5028803;28;20239;-60
2021/07/04 02:47:27;;;;;;;2.10;1.77;;;15.00;99.90;;;;;;5022375;28;20703;-60
2021/07/04 02:49:58;;;;;;;2.90;2.00;;;14.90;99.90;;;;;;5045383;28;20236;-60
2021/07/04 02:52:27;;;;;;;2.87;1.90;;;14.90;99.90;;;;;;5036968;28;20244;-61
2021/07/04 02:54:56;;;;;;;2.40;2.17;;;14.90;99.90;;;;;;5045267;28;20243;-62
2021/07/04 02:57:33;;;;;;;2.40;2.10;;;14.90;99.90;;;;;;5020911;28;20246;-60
2021/07/04 03:00:07;;;;;;;2.20;2.00;;;14.90;99.90;;;;;;5042563;28;20236;-61
2021/07/04 03:02:36;;;;;;;2.43;2.00;;;14.80;99.90;;;;;;5044740;28;20240;-61
2021/07/04 03:05:08;;;;;;;4.57;2.43;;;14.90;99.90;;;;;;5045009;28;20255;-61
2021/07/04 03:07:38;;;;;;;2.47;2.27;;;14.90;99.90;;;;;;5044712;28;20224;-60
2021/07/04 03:10:07;;;;;;;3.17;2.43;;;14.90;99.90;;;;;;5031187;28;20236;-61
2021/07/04 03:12:37;;;;;;;3.17;2.37;;;14.90;99.90;;;;;;5064597;28;20235;-61
2021/07/04 03:15:08;;;;;;;2.47;2.27;;;14.90;99.90;;;;;;5048611;28;20232;-60
2021/07/04 03:17:38;;;;;;;2.73;2.33;;;14.90;99.90;;;;;;5044532;28;20351;-61
2021/07/04 03:20:08;;;;;;;2.83;2.30;;;14.90;99.90;;;;;;5029563;28;20323;-61
2021/07/04 03:22:38;;;;;;;2.87;2.50;;;14.90;99.90;;;;;;5044331;28;20237;-62
2021/07/04 03:25:09;;;;;;;4.70;2.50;;;14.90;99.90;;;;;;5045126;28;20521;-60
2021/07/04 03:27:39;;;;;;;4.50;2.33;;;14.90;99.90;;;;;;5044692;28;20231;-60
2021/07/04 03:30:11;;;;;;;5.03;2.60;;;14.90;99.90;;;;;;5044367;28;20247;-61
2021/07/04 03:32:40;;;;;;;3.87;2.60;;;14.90;99.90;;;;;;5044200;28;20232;-61
2021/07/04 03:35:12;;;;;;;2.47;2.20;;;14.90;99.90;;;;;;5022005;28;20714;-59
2021/07/04 03:37:43;;;;;;;2.30;1.93;;;14.90;99.90;;;;;;5044553;28;20251;-61
2021/07/04 03:40:17;;;;;;;4.03;2.30;;;15.00;99.90;;;;;;5046396;28;20319;-60
2021/07/04 03:42:52;;;;;;;2.40;2.20;;;15.00;99.90;;;;;;5063919;28;20246;-61
2021/07/04 03:45:25;;;;;;;2.37;2.17;;;15.00;99.90;;;;;;5060344;28;20600;-60
2021/07/04 03:47:54;;;;;;;2.30;2.10;;;15.10;99.90;;;;;;5044135;28;20556;-62
2021/07/04 03:50:34;;;;;;;2.27;2.00;;;15.20;99.90;;;;;;5043492;28;20243;-61
2021/07/04 03:53:03;;;;;;;2.60;2.17;;;15.30;99.90;;;;;;5043655;28;20294;-60
2021/07/04 03:55:32;;;;;;;2.83;2.30;;;15.40;99.90;;;;;;5044071;28;20512;-60
2021/07/04 03:58:02;;;;;;;3.40;2.50;;;15.50;99.90;;;;;;5043840;28;20298;-62
2021/07/04 04:00:38;;;;;;;3.60;2.47;;;15.50;99.90;;;;;;5043096;28;20349;-61
2021/07/04 04:03:14;;;;;;;5.03;2.70;;;15.50;99.90;;;;;;5043533;28;20228;-62
2021/07/04 04:05:57;;;;;;;6.40;2.80;;;15.60;99.90;;;;;;5043166;28;20234;-61
2021/07/04 04:08:30;;;;;;;3.07;2.40;;;15.60;99.90;;;;;;5043577;28;20236;-61
2021/07/04 04:10:58;;;;;;;2.93;2.13;;;15.70;99.90;;;;;;5027964;28;20301;-60
2021/07/04 04:13:30;;;;;;;4.07;2.53;;;15.80;99.90;;;;;;5020449;28;20236;-62
2021/07/04 04:16:06;;;;;;;2.50;2.30;;;15.90;99.90;;;;;;5042782;28;20293;-61
2021/07/04 04:18:37;;;;;;;2.80;2.60;;;16.00;99.90;;;;;;5027437;28;20267;-61
2021/07/04 04:21:09;;;;;;;5.50;2.70;;;16.10;99.90;;;;;;5042286;28;20236;-60
2021/07/04 04:23:38;;;;;;;3.80;2.70;;;16.20;99.90;;;;;;5043127;28;20256;-60
2021/07/04 04:26:10;;;;;;;6.37;2.73;;;16.20;99.90;;;;;;5043336;28;20235;-61
2021/07/04 04:28:41;;;;;;;4.33;3.30;;;16.20;99.90;;;;;;5043240;28;20302;-62
2021/07/04 04:31:10;;;;;;;5.93;2.87;;;16.20;99.90;;;;;;5027950;28;20761;-60
2021/07/04 04:33:38;;;;;;;7.60;2.73;;;16.20;99.90;;;;;;5042882;28;20240;-61
2021/07/04 04:36:06;;;;;;;3.47;2.50;;;16.40;99.90;;;;;;5042757;28;20708;-60
2021/07/04 04:38:34;;;;;;;3.27;2.77;;;16.50;99.90;;;;;;5027825;28;20274;-60
2021/07/04 04:41:03;;;;;;;3.43;3.13;;;16.60;99.90;;;;;;5027360;28;20236;-62
2021/07/04 04:43:31;;;;;;;3.33;3.03;;;16.70;99.90;;;;;;5028106;28;20232;-60
2021/07/04 04:46:00;;;;;;;3.37;2.93;;;16.80;99.90;;;;;;5028297;28;20228;-60
2021/07/04 04:48:29;;;;;;;7.00;3.40;;;16.90;99.90;;;;;;5020440;28;20745;-61
2021/07/04 04:50:57;;;;;;;3.73;3.20;;;17.00;99.90;;;;;;5027528;28;20235;-61
2021/07/04 04:53:25;;;;;;;3.00;2.70;;;17.10;99.90;;;;;;5026981;28;20696;-61
2021/07/04 04:55:53;;;;;;;3.33;2.93;;;17.30;99.90;;;;;;5027408;28;20240;-61
2021/07/04 04:58:21;;;;;;;5.67;3.50;;;17.50;99.90;;;;;;5027315;28;20259;-61
2021/07/04 05:00:49;;;;;;;5.07;2.70;;;17.60;99.90;;;;;;5027369;28;20241;-61
2021/07/04 05:03:19;;;;;;;7.87;7.17;;;17.80;99.90;;;;;;5027185;28;20226;-61
2021/07/04 05:05:47;;;;;;;8.97;8.20;;;18.10;99.90;;;;;;5025827;28;20291;-61
2021/07/04 05:08:16;;;;;;;7.20;6.60;;;18.30;99.90;;;;;;5025277;28;20228;-61
2021/07/04 05:10:45;;;;;;;9.10;5.37;;;18.50;99.90;;;;;;5025321;28;20233;-61
2021/07/04 05:13:14;;;;;;;5.10;4.70;;;18.80;99.90;;;;;;5024856;28;20309;-62
2021/07/04 05:15:42;;;;;;;5.27;3.73;;;19.00;99.90;;;;;;5025632;28;20241;-61
2021/07/04 05:18:10;;;;;;;4.40;3.63;;;19.10;99.90;;;;;;5026126;28;20265;-61
2021/07/04 05:20:40;;;;;;;5.53;3.73;;;19.20;99.90;;;;;;5040240;28;20802;-62
2021/07/04 05:23:08;;;;;;;5.07;3.80;;;19.30;99.90;;;;;;5025706;28;20560;-61
2021/07/04 05:25:36;;;;;;;4.40;4.00;;;19.50;99.90;;;;;;5031414;28;20630;-61
2021/07/04 05:28:05;;;;;;;4.93;3.33;;;19.60;99.90;;;;;;5046194;28;20247;-60
2021/07/04 05:30:33;;;;;;;3.90;3.50;;;19.80;99.90;;;;;;5040372;28;20242;-62
2021/07/04 05:33:01;;;;;;;5.27;3.67;;;20.00;99.90;;;;;;5025798;28;20235;-61
2021/07/04 05:35:29;;;;;;;5.33;3.83;;;20.10;99.90;;;;;;5025831;28;20247;-61
2021/07/04 05:37:59;;;;;;;4.87;3.90;;;20.20;99.90;;;;;;5025806;28;20234;-61
2021/07/04 05:40:28;;;;;;;6.60;3.90;;;20.30;99.90;;;;;;5025084;28;20239;-62
2021/07/04 05:42:56;;;;;;;4.97;4.07;;;20.40;99.90;;;;;;5022591;28;20239;-61
2021/07/04 05:45:25;;;;;;;4.30;3.40;;;20.50;99.90;;;;;;5025501;28;20300;-61
2021/07/04 05:47:55;;;;;;;3.97;3.67;;;20.70;99.90;;;;;;5025506;28;20254;-61
2021/07/04 05:50:23;;;;;;;3.50;3.20;;;20.90;99.90;;;;;;5024906;28;20398;-61
2021/07/04 05:52:51;;;;;;;4.20;3.80;;;21.30;99.90;;;;;;5025340;28;20240;-63
2021/07/04 05:55:22;;;;;;;3.87;3.50;;;21.30;99.90;;;;;;5025557;28;20282;-61
2021/07/04 05:57:50;;;;;;;3.27;2.97;;;21.40;99.90;;;;;;5025607;28;20715;-61
2021/07/04 06:00:19;;;;;;;3.90;3.50;;;21.50;99.90;;;;;;5024324;28;20855;-62
2021/07/04 06:02:47;;;;;;;3.87;3.47;;;21.60;99.90;;;;;;5023519;28;20247;-62
2021/07/04 06:05:17;;;;;;;4.27;3.47;;;21.40;99.90;;;;;;5025852;28;20577;-61
2021/07/04 06:07:46;;;;;;;3.90;3.30;;;21.40;99.90;;;;;;5025563;28;20243;-60
2021/07/04 06:10:14;;;;;;;5.37;3.60;;;21.40;99.90;;;;;;5039990;28;20242;-61
2021/07/04 06:12:44;;;;;;;3.60;3.07;;;21.40;99.90;;;;;;5024745;28;20261;-62
2021/07/04 06:15:14;;;;;;;4.13;3.47;;;21.40;99.90;;;;;;5024841;28;20283;-61
2021/07/04 06:17:42;;;;;;;3.37;3.13;;;21.40;99.90;;;;;;5019622;28;20707;-61
2021/07/04 06:20:15;;;;;;;4.77;3.50;;;21.40;99.90;;;;;;5024344;28;20707;-61
2021/07/04 06:22:44;;;;;;;4.03;3.63;;;21.40;99.90;;;;;;5024476;28;20762;-60
2021/07/04 06:25:15;;;;;;;5.83;3.70;;;21.70;99.90;;;;;;5026677;28;20236;-61
2021/07/04 06:27:45;;;;;;;3.50;3.20;;;21.90;99.90;;;;;;5026075;28;20244;-61
2021/07/04 06:30:14;;;;;;;3.57;3.23;;;22.50;99.90;;;;;;5026562;28;20327;-62
2021/07/04 06:32:42;;;;;;;5.20;3.77;;;22.50;99.90;;;;;;5025668;28;20494;-61
2021/07/04 06:35:13;;;;;;;4.30;3.63;;;22.50;99.90;;;;;;5026580;28;20664;-61
2021/07/04 06:37:41;;;;;;;6.50;4.00;;;22.70;99.90;;;;;;5025673;28;20323;-61
2021/07/04 06:40:10;;;;;;;6.43;4.10;;;22.90;99.90;;;;;;5025925;28;20236;-61
2021/07/04 06:42:39;;;;;;;4.33;3.73;;;22.90;99.90;;;;;;5027968;28;20242;-62
2021/07/04 06:45:11;;;;;;;3.90;3.60;;;23.20;99.90;;;;;;5031809;28;20237;-61
2021/07/04 06:47:40;;;;;;;4.00;3.40;;;23.60;99.90;;;;;;5049653;28;20243;-61
2021/07/04 06:50:10;;;;;;;4.33;3.60;;;24.00;99.90;;;;;;5047732;28;20243;-62
2021/07/04 06:52:39;;;;;;;3.77;3.40;;;24.10;99.90;;;;;;5029027;28;20469;-61
2021/07/04 06:55:09;;;;;;;3.70;3.40;;;24.60;99.90;;;;;;5030076;28;20232;-61
2021/07/04 06:57:38;;;;;;;5.07;3.60;;;24.60;99.90;;;;;;5028807;28;20712;-60
2021/07/04 07:00:10;;;;;;;3.80;3.50;;;24.90;99.90;;;;;;5028659;28;20573;-61
2021/07/04 07:02:39;;;;;;;3.93;3.63;;;25.20;99.90;;;;;;5027536;28;20237;-62
2021/07/04 07:05:10;;;;;;;3.70;3.40;;;25.10;99.90;;;;;;5028827;28;20720;-62
2021/07/04 07:07:39;;;;;;;4.10;3.70;;;25.20;99.90;;;;;;5028077;28;20290;-61
2021/07/04 07:10:09;;;;;;;4.07;3.77;;;25.00;99.90;;;;;;5028019;28;20317;-62
2021/07/04 07:12:41;;;;;;;4.10;3.70;;;25.10;99.90;;;;;;5043024;28;20242;-61
2021/07/04 07:15:13;;;;;;;4.53;3.47;;;25.60;99.90;;;;;;5028230;28;20268;-61
2021/07/04 07:17:42;;;;;;;4.43;4.03;;;25.80;99.90;;;;;;5027955;28;20245;-62
2021/07/04 07:20:14;;;;;;;5.10;4.60;;;25.70;99.90;;;;;;5042783;28;20923;-62
2021/07/04 07:22:43;;;;;;;4.57;4.13;;;25.50;99.90;;;;;;5027858;28;20291;-61
2021/07/04 07:25:16;;;;;;;5.07;3.80;;;25.30;99.90;;;;;;5043460;28;20325;-62
2021/07/04 07:27:44;;;;;;;4.00;3.70;;;25.50;99.90;;;;;;5027973;28;20246;-61
2021/07/04 07:30:16;;;;;;;4.23;3.83;;;25.80;99.90;;;;;;5027986;28;20598;-62
2021/07/04 07:32:44;;;;;;;4.63;4.10;;;25.90;99.90;;;;;;5042518;28;20273;-62
2021/07/04 07:35:13;;;;;;;4.30;3.90;;;25.80;99.90;;;;;;5027987;28;20239;-61
2021/07/04 07:37:44;;;;;;;5.23;4.07;;;25.70;99.90;;;;;;5042760;28;20240;-62
2021/07/04 07:40:13;;;;;;;4.30;3.90;;;25.70;99.90;;;;;;5026748;28;20239;-63
2021/07/04 07:42:54;;;;;;;4.17;3.70;;;25.60;99.90;;;;;;5042598;28;20242;-61
2021/07/04 07:45:24;;;;;;;4.03;3.63;;;25.40;99.90;;;;;;5028877;28;20718;-61
2021/07/04 07:47:59;;;;;;;5.20;4.10;;;25.30;99.90;;;;;;5044122;28;20238;-59
2021/07/04 07:50:36;;;;;;;4.73;4.20;;;25.00;99.90;;;;;;5042827;28;20253;-60
2021/07/04 07:53:04;;;;;;;5.97;5.00;;;24.80;99.90;;;;;;5027891;28;20244;-60
2021/07/04 07:55:33;;;;;;;4.40;4.00;;;24.60;99.90;;;;;;5029099;28;20237;-60
2021/07/04 07:58:01;;;;;;;4.60;4.00;;;24.50;99.90;;;;;;5029287;28;20237;-60
2021/07/04 08:00:31;;;;;;;5.47;4.97;;;24.40;99.90;;;;;;5028457;28;20767;-60
2021/07/04 08:03:00;;;;;;;4.70;4.30;;;24.30;99.90;;;;;;5028241;28;20688;-59
2021/07/04 08:05:28;;;;;;;4.87;4.47;;;24.20;99.90;;;;;;5028600;28;20255;-59
2021/07/04 08:07:56;;;;;;;5.70;5.00;;;24.10;99.90;;;;;;5028627;28;20242;-60
2021/07/04 08:10:32;;;;;;;4.93;4.43;;;23.90;99.90;;;;;;5042408;28;20236;-60
2021/07/04 08:13:00;;;;;;;4.40;3.90;;;23.80;99.90;;;;;;5027824;28;20233;-60
2021/07/04 08:15:30;;;;;;;5.13;4.68;;;23.90;99.90;;;;;;5027840;28;20492;-60
2021/07/04 08:18:00;;;;;;;6.10;4.87;;;23.90;99.90;;;;;;5017988;28;20234;-59
2021/07/04 08:20:31;;;;;;;6.47;5.30;;;24.00;99.90;;;;;;5027809;28;20241;-60
2021/07/04 08:22:59;;;;;;;5.93;5.30;;;24.10;99.90;;;;;;5025985;28;20506;-61
2021/07/04 08:25:27;;;;;;;8.80;5.40;;;24.20;99.90;;;;;;5028155;28;20258;-61
2021/07/04 08:27:55;;;;;;;5.83;5.23;;;24.30;99.90;;;;;;5028086;28;20245;-61
2021/07/04 08:30:24;;;;;;;6.00;5.40;;;24.60;99.90;;;;;;5027550;28;20247;-61
2021/07/04 08:32:53;;;;;;;6.10;5.50;;;24.80;99.90;;;;;;5027456;28;20235;-60
2021/07/04 08:35:21;;;;;;;5.77;5.20;;;24.90;99.90;;;;;;5027690;28;20231;-61
2021/07/04 08:37:49;;;;;;;6.80;6.00;;;24.90;99.90;;;;;;5028109;28;20265;-60
2021/07/04 08:40:18;;;;;;;5.83;5.23;;;24.80;99.90;;;;;;5027352;28;20332;-61
2021/07/04 08:42:48;;;;;;;6.97;6.23;;;24.90;99.90;;;;;;5026913;28;20613;-60
2021/07/04 08:45:16;;;;;;;6.43;5.83;;;24.80;99.90;;;;;;5028088;28;20265;-60
2021/07/04 08:47:44;;;;;;;5.97;5.37;;;24.90;99.90;;;;;;5027659;28;20250;-60
2021/07/04 08:50:18;;;;;;;8.97;5.30;;;24.90;99.90;;;;;;5027533;28;20598;-60
2021/07/04 08:52:46;;;;;;;6.77;6.03;;;24.90;99.90;;;;;;5027175;28;20326;-61
2021/07/04 08:55:16;;;;;;;6.77;6.10;;;24.90;99.90;;;;;;5030117;28;20243;-61
2021/07/04 08:57:45;;;;;;;8.17;6.00;;;24.80;99.90;;;;;;5047429;28;20612;-60
2021/07/04 09:00:17;;;;;;;8.17;6.10;;;24.70;99.90;;;;;;5045171;28;20632;-60
2021/07/04 09:02:46;;;;;;;7.37;6.60;;;24.70;99.90;;;;;;5027026;28;20243;-60
2021/07/04 09:05:19;;;;;;;7.13;6.50;;;24.60;99.90;;;;;;5027410;28;20261;-60
2021/07/04 09:07:47;;;;;;;6.93;6.30;;;24.50;99.90;;;;;;5024627;28;20291;-60
2021/07/04 09:10:18;;;;;;;6.90;6.20;;;24.30;99.90;;;;;;5026899;28;20317;-61
2021/07/04 09:12:50;;;;;;;7.33;6.60;;;24.30;99.90;;;;;;5026752;28;20273;-59
2021/07/04 09:15:20;;;;;;;7.30;6.70;;;24.30;99.90;;;;;;5025772;28;20455;-61
2021/07/04 09:17:51;;;;;;;7.13;6.43;;;24.30;99.90;;;;;;5021650;28;20250;-61
2021/07/04 09:20:22;;;;;;;7.27;6.53;;;24.40;99.90;;;;;;5026356;28;20285;-61
2021/07/04 09:22:53;;;;;;;7.70;6.47;;;24.40;99.90;;;;;;5026447;28;20238;-60
2021/07/04 09:25:23;;;;;;;7.23;6.50;;;24.40;99.90;;;;;;5030534;28;20236;-60
2021/07/04 09:28:03;;;;;;;6.70;6.10;;;24.50;99.90;;;;;;5047237;28;20241;-61
2021/07/04 09:30:36;;;;;;;7.40;6.60;;;24.60;99.90;;;;;;5026157;28;20259;-61
2021/07/04 09:33:14;;;;;;;7.23;6.53;;;24.90;99.90;;;;;;5026191;28;20276;-60
2021/07/04 09:35:54;;;;;;;6.83;6.20;;;25.10;99.90;;;;;;5026600;28;20297;-60
2021/07/04 09:38:23;;;;;;;6.60;5.90;;;25.40;99.90;;;;;;5026916;28;20288;-60
2021/07/04 09:40:52;;;;;;;9.30;6.77;;;25.80;99.90;;;;;;5026094;28;20540;-61
2021/07/04 09:43:20;;;;;;;7.07;6.37;;;26.20;99.90;;;;;;5026157;28;20269;-61
2021/07/04 09:45:53;;;;;;;5.60;5.20;;;26.60;99.90;;;;;;5026835;28;20599;-61
2021/07/04 09:48:37;;;;;;;5.50;5.10;;;26.90;99.90;;;;;;5026710;28;20235;-61
2021/07/04 09:51:11;;;;;;;6.17;5.67;;;27.20;99.90;;;;;;5026089;28;20238;-61
2021/07/04 09:53:44;;;;;;;6.40;5.80;;;27.00;99.90;;;;;;5026454;28;20603;-61
2021/07/04 09:56:14;;;;;;;7.73;7.03;;;26.70;99.90;;;;;;5027034;28;20238;-61
2021/07/04 09:58:44;;;;;;;7.40;6.70;;;26.50;99.90;;;;;;5041735;28;20671;-60
2021/07/04 10:01:31;;;;;;;6.80;6.20;;;26.30;99.90;;;;;;5025650;28;20766;-61
2021/07/04 10:04:00;;;;;;;7.10;6.40;;;26.20;99.90;;;;;;5026055;28;22045;-62
2021/07/04 10:06:45;;;;;;;6.43;5.80;;;26.10;99.90;;;;;;5026845;28;20242;-61
2021/07/04 10:09:13;;;;;;;6.53;5.93;;;26.00;99.90;;;;;;5025872;28;20252;-60
2021/07/04 10:11:42;;;;;;;6.90;6.23;;;26.00;99.90;;;;;;5025694;28;20269;-61
2021/07/04 10:14:10;;;;;;;6.80;6.20;;;25.70;99.90;;;;;;5026537;28;20250;-61
2021/07/04 10:16:42;;;;;;;7.00;6.23;;;25.60;99.90;;;;;;5026646;28;20231;-62
2021/07/04 10:19:15;;;;;;;7.70;6.90;;;25.50;99.90;;;;;;5029479;28;20240;-61
2021/07/04 10:21:45;;;;;;;7.43;6.47;;;25.50;99.90;;;;;;5029714;28;20325;-60
2021/07/04 10:24:13;;;;;;;7.20;6.50;;;25.60;99.90;;;;;;5030580;28;20243;-61
2021/07/04 10:26:43;;;;;;;7.20;6.50;;;25.60;99.90;;;;;;5030253;28;20243;-60
2021/07/04 10:29:13;;;;;;;6.60;6.00;;;25.40;99.90;;;;;;5030386;28;20243;-60
2021/07/04 10:31:41;;;;;;;7.33;6.63;;;25.40;99.90;;;;;;5029330;28;20317;-61
2021/07/04 10:34:11;;;;;;;8.43;6.37;;;25.40;99.90;;;;;;5030137;28;20324;-61
2021/07/04 10:36:58;;;;;;;7.20;6.60;;;25.50;99.90;;;;;;5030006;28;20244;-61
2021/07/04 10:39:27;;;;;;;7.73;6.60;;;25.40;99.90;;;;;;5010055;28;20254;-61
2021/07/04 10:41:57;;;;;;;7.00;6.30;;;25.40;99.90;;;;;;5025776;28;20240;-61
2021/07/04 10:44:42;;;;;;;6.53;5.80;;;25.40;99.90;;;;;;5029856;28;20266;-61
2021/07/04 10:47:13;;;;;;;7.80;6.67;;;25.70;99.90;;;;;;5030038;28;20520;-60
2021/07/04 10:49:56;;;;;;;7.97;5.50;;;26.00;99.90;;;;;;5029610;28;20333;-61
2021/07/04 10:52:39;;;;;;;7.93;5.90;;;26.20;99.90;;;;;;5029402;28;20261;-61
2021/07/04 10:55:10;;;;;;;8.23;6.70;;;26.20;99.90;;;;;;5029724;28;20290;-62
2021/07/04 10:57:54;;;;;;;17.27;6.93;;;26.10;99.90;;;;;;5029777;28;20301;-61
2021/07/04 11:00:28;;;;;;;18.00;7.30;;;26.40;99.90;;;;;;5028897;28;20317;-61
2021/07/04 11:02:58;;;;;;;16.53;7.10;;;26.40;99.90;;;;;;5029194;28;20260;-61
2021/07/04 11:05:47;;;;;;;11.53;7.23;;;26.30;99.90;;;;;;5029284;28;20250;-62
2021/07/04 11:08:28;;;;;;;13.53;6.53;;;26.20;99.90;;;;;;5026384;28;20258;-62
2021/07/04 11:11:02;;;;;;;7.00;6.30;;;26.20;99.90;;;;;;5033901;28;20233;-62
2021/07/04 11:13:37;;;;;;;9.87;7.53;;;26.40;99.90;;;;;;5046365;28;20712;-62
2021/07/04 11:16:31;;;;;;;7.57;6.07;;;26.50;99.90;;;;;;5036556;28;20243;-62
2021/07/04 11:19:10;;;;;;;7.57;6.83;;;26.60;99.90;;;;;;5011346;28;20266;-63
2021/07/04 11:21:55;;;;;;;7.23;6.37;;;26.80;99.90;;;;;;5019580;28;20286;-62
2021/07/04 11:24:27;;;;;;;7.57;6.63;;;26.70;99.90;;;;;;5028893;28;20244;-62
2021/07/04 11:27:25;;;;;;;8.03;7.30;;;26.80;99.90;;;;;;5029310;28;20245;-61
2021/07/04 11:30:30;;;;;;;7.83;7.13;;;26.80;99.90;;;;;;5009538;28;20248;-61
2021/07/04 11:33:28;;;;;;;7.50;6.80;;;26.80;99.90;;;;;;5025016;28;20654;-61
2021/07/04 11:36:03;;;;;;;8.93;8.03;;;26.90;99.90;;;;;;5028909;28;20239;-62
2021/07/04 11:38:33;;;;;;;8.57;7.60;;;27.00;99.90;;;;;;5028728;28;20232;-61
2021/07/04 11:41:04;;;;;;;9.10;8.30;;;27.10;99.90;;;;;;5037583;28;20241;-62
2021/07/04 11:43:34;;;;;;;7.80;7.20;;;27.00;99.90;;;;;;5049007;28;20281;-62
2021/07/04 11:46:04;;;;;;;8.53;7.50;;;27.00;99.90;;;;;;5039828;28;20322;-62
2021/07/04 11:49:08;;;;;;;7.80;7.00;;;27.10;99.90;;;;;;5029156;28;20240;-62
2021/07/04 11:51:48;;;;;;;9.33;8.23;;;27.40;99.90;;;;;;5005272;28;20260;-62
2021/07/04 11:54:17;;;;;;;7.97;7.20;;;27.70;99.90;;;;;;5005945;28;20243;-62
2021/07/04 11:56:49;;;;;;;10.10;9.10;;;28.00;99.90;;;;;;5018721;28;20251;-61
2021/07/04 11:59:21;;;;;;;9.10;7.73;;;28.60;99.90;;;;;;5028945;28;20240;-62
2021/07/04 12:01:54;;;;;;;9.87;7.70;;;28.60;99.90;;;;;;5028223;28;20251;-61
2021/07/04 12:04:32;;;;;;;9.33;8.37;;;28.60;99.90;;;;;;5027887;28;20238;-61
2021/07/04 12:07:04;;;;;;;8.63;7.77;;;28.70;99.90;;;;;;5040633;28;20286;-62
2021/07/04 12:09:38;;;;;;;13.30;8.80;;;29.00;99.90;;;;;;5028170;28;20762;-62
2021/07/04 12:12:13;;;;;;;20.80;8.53;;;28.90;99.90;;;;;;5027271;28;20316;-62
2021/07/04 12:14:42;;;;;;;10.27;9.03;;;28.60;99.90;;;;;;5028220;28;20254;-62
2021/07/04 12:17:29;;;;;;;9.83;8.83;;;29.00;99.90;;;;;;5027837;28;20236;-62
2021/07/04 12:20:04;;;;;;;11.43;8.40;;;28.90;99.90;;;;;;5028218;28;20240;-61
2021/07/04 12:22:35;;;;;;;8.00;7.27;;;28.90;99.90;;;;;;5019903;28;20272;-62
2021/07/04 12:25:12;;;;;;;7.20;6.60;;;28.90;99.90;;;;;;5027945;28;20270;-62
2021/07/04 12:27:44;;;;;;;7.53;6.80;;;28.70;99.90;;;;;;5021556;28;20240;-61
2021/07/04 12:30:22;;;;;;;8.13;7.43;;;28.60;99.90;;;;;;5027514;28;20233;-61
2021/07/04 12:32:54;;;;;;;7.43;6.73;;;28.50;99.90;;;;;;5027583;28;20232;-62
2021/07/04 12:35:28;;;;;;;7.47;6.73;;;28.60;99.90;;;;;;5027732;28;20893;-62
2021/07/04 12:37:59;;;;;;;6.87;6.27;;;28.70;99.90;;;;;;5028181;28;20243;-61
2021/07/04 12:40:30;;;;;;;7.70;7.00;;;28.50;99.90;;;;;;5026636;28;20244;-62
2021/07/04 12:43:13;;;;;;;7.30;6.60;;;28.40;99.90;;;;;;5026823;28;20700;-62
2021/07/04 12:45:46;;;;;;;8.30;7.50;;;28.40;99.90;;;;;;5027398;28;20244;-61
2021/07/04 12:48:16;;;;;;;7.87;7.17;;;28.20;99.90;;;;;;5027646;28;20253;-62
2021/07/04 12:50:51;;;;;;;7.07;6.43;;;28.00;99.90;;;;;;5027163;28;20248;-62
2021/07/04 12:53:20;;;;;;;8.47;6.57;;;28.00;99.90;;;;;;5027662;28;20759;-61
2021/07/04 12:55:51;;;;;;;6.93;6.33;;;28.10;99.90;;;;;;5034856;28;20767;-61
2021/07/04 12:58:32;;;;;;;7.27;6.57;;;28.20;99.90;;;;;;5047813;28;20266;-62
2021/07/04 13:01:21;;;;;;;6.27;5.67;;;28.20;99.90;;;;;;5037982;28;20231;-61
2021/07/04 13:03:55;;;;;;;7.53;6.83;;;28.00;99.90;;;;;;5022111;28;20322;-62
2021/07/04 13:06:48;;;;;;;8.37;7.13;;;28.00;99.90;;;;;;5027552;28;20278;-61
2021/07/04 13:09:19;;;;;;;8.97;8.03;;;27.80;99.90;;;;;;5027417;28;20236;-58
2021/07/04 13:12:02;;;;;;;6.97;6.37;;;27.60;99.90;;;;;;5025562;28;20244;-60